ADDS METAR Data INFO
IDs: Format: Raw Decoded Include TAF

Data at: 0402 UTC 19 Jul 2018

KHQG 190355Z AUTO 13006KT 10SM CLR 26/21 A3000 RMK AO2 T02570212
KHQG 190335Z AUTO 13006KT 10SM CLR 26/21 A3000 RMK AO2 T02580205
KHQG 190315Z AUTO 13009KT 10SM CLR 26/20 A2999 RMK AO2 T02580196
KHQG 190255Z AUTO 13010KT 10SM CLR 26/19 A2998 RMK AO2 T02580194
KHQG 190235Z AUTO 13009KT 10SM CLR 27/20 A2997 RMK AO2 T02720201
KHQG 190215Z AUTO 13008KT 10SM CLR 27/20 A2997 RMK AO2 T02720195
KHQG 190155Z AUTO 12007KT 10SM CLR 29/20 A2997 RMK AO2 T02870202
KHQG 190135Z AUTO 10007KT 10SM CLR 30/19 A2998 RMK AO2 T02960194
KHQG 190115Z AUTO 11008KT 10SM CLR 31/19 A2997 RMK AO2 T03070189
KHQG 190055Z AUTO 10006KT 10SM CLR 33/19 A2998 RMK AO2 T03300190
KHQG 190035Z AUTO 12007KT 10SM CLR 34/19 A2997 RMK AO2 T03430188
KHQG 190015Z AUTO 10006KT 10SM CLR 34/18 A2998 RMK AO2 T03430177
KHQG 182355Z AUTO 13006KT 10SM CLR 34/18 A2998 RMK AO2 T03430178 10343 20295
KHQG 182335Z AUTO 09005KT 10SM CLR 34/18 A2998 RMK AO2 T03430175
KHQG 182315Z AUTO 12006KT 10SM CLR 34/17 A2998 RMK AO2 T03430173
KHQG 182255Z AUTO 10003KT 10SM CLR 34/18 A2998 RMK AO2 T03430175
KHQG 182235Z AUTO 14005KT 10SM CLR 34/18 A2999 RMK AO2 T03430180
KHQG 182215Z AUTO 13003KT 10SM CLR 34/19 A3000 RMK AO2 T03430185
KHQG 182155Z AUTO 13004KT 10SM CLR 34/19 A3000 RMK AO2 T03430192
KHQG 182135Z AUTO 11004KT 10SM CLR 34/19 A3000 RMK AO2 T03430192
KHQG 182115Z AUTO 16004KT 10SM CLR 34/19 A3001 RMK AO2 T03350188
KHQG 182055Z AUTO 00000KT 10SM CLR 33/19 A3001 RMK AO2 T03330185
KHQG 182035Z AUTO 06006KT 10SM CLR 33/19 A3001 RMK AO2 T03260186
KHQG 182015Z AUTO 09004KT 10SM CLR 32/19 A3002 RMK AO2 T03230189
KHQG 181955Z AUTO 07004KT 10SM CLR 31/17 A3003 RMK AO2 T03110171
KHQG 181935Z AUTO 00000KT 10SM CLR 32/18 A3003 RMK AO2 T03240180
KHQG 181915Z AUTO 17007KT 10SM CLR 31/18 A3003 RMK AO2 T03090176
KHQG 181855Z AUTO 14006KT 10SM CLR 30/18 A3003 RMK AO2 T03020184
KHQG 181835Z AUTO 14006KT 10SM CLR 31/18 A3004 RMK AO2 T03080183
KHQG 181815Z AUTO 17004KT 10SM CLR 30/18 A3006 RMK AO2 T03000179
KHQG 181755Z AUTO 10003KT 10SM CLR 30/18 A3006 RMK AO2 T03010180 10301 20205
KHQG 181735Z AUTO 00000KT 10SM CLR 29/18 A3007 RMK AO2 T02900179
KHQG 181715Z AUTO 00000KT 10SM CLR 29/17 A3007 RMK AO2 T02870172
KHQG 181655Z AUTO 06003KT 10SM CLR 29/18 A3008 RMK AO2 T02870183
KHQG 181635Z AUTO 00000KT 10SM CLR 29/19 A3008 RMK AO2 T02870186
KHQG 181615Z AUTO 14003KT 10SM CLR 29/19 A3008 RMK AO2 T02850187
KHQG 181555Z AUTO 00000KT 10SM CLR 27/19 A3007 RMK AO2 T02730185
KHQG 181535Z AUTO 23004KT 10SM CLR 27/19 A3007 RMK AO2 T02720185
KHQG 181515Z AUTO 00000KT 10SM CLR 27/19 A3007 RMK AO2 T02710189
KHQG 181455Z AUTO 00000KT 10SM CLR 26/19 A3008 RMK AO2 T02580193
KHQG 181435Z AUTO 28003KT 10SM CLR 26/20 A3007 RMK AO2 T02580203
KHQG 181415Z AUTO 31003KT 10SM CLR 25/20 A3008 RMK AO2 T02450196
KHQG 181355Z AUTO 29003KT 10SM CLR 24/19 A3008 RMK AO2 T02350189
KHQG 181335Z AUTO 34003KT 10SM CLR 23/19 A3009 RMK AO2 T02300190
KHQG 181315Z AUTO 33003KT 10SM CLR 23/20 A3009 RMK AO2 T02300195
KHQG 181255Z AUTO 33004KT 10SM CLR 23/20 A3008 RMK AO2 T02300199
KHQG 181235Z AUTO 00000KT 10SM CLR 22/19 A3007 RMK AO2 T02160190
KHQG 181215Z AUTO 26004KT 10SM CLR 22/19 A3007 RMK AO2 T02160190
KHQG 181155Z AUTO 23009KT 10SM CLR 20/18 A3006 RMK AO2 60013 70065 T02040181 10230 20202
KHQG 181135Z AUTO 22010KT 10SM CLR 20/18 A3005 RMK AO2 T02020180
KHQG 181115Z AUTO 22010KT 10SM CLR 21/19 A3004 RMK AO2 T02100189
KHQG 181055Z AUTO 22012KT 10SM CLR 22/20 A3004 RMK AO2 T02150195
KHQG 181035Z AUTO 22012KT 10SM CLR 22/20 A3004 RMK AO2 T02160196
KHQG 181015Z AUTO 22012KT 10SM CLR 22/20 A3004 RMK AO2 T02160195
KHQG 180955Z AUTO 21012KT 10SM CLR 21/20 A3004 RMK AO2 T02130195
KHQG 180935Z AUTO 21012KT 7SM CLR 22/20 A3005 RMK AO2 T02160200
KHQG 180915Z AUTO 21008KT 7SM CLR 22/20 A3005 RMK AO2 T02160200
KHQG 180855Z AUTO 19004KT 10SM CLR 22/20 A3006 RMK AO2 60013 T02160198
KHQG 180835Z AUTO 20006KT 10SM CLR 22/20 A3007 RMK AO2 T02160197
KHQG 180815Z AUTO 19007KT 10SM SCT100 22/20 A3007 RMK AO2 T02210199
KHQG 180755Z AUTO 18006KT 7SM -RA SCT018 BKN065 OVC100 23/20 A3009 RMK AO2 P0013 T02300202
KHQG 180735Z AUTO 01005KT 10SM BKN065 OVC090 23/20 A3013 RMK AO2 LTG DSNT NW P0001 T02300204
KHQG 180715Z AUTO 18003KT 10SM -RA SCT080 OVC090 23/21 A3012 RMK AO2 P0001 T02300205
KHQG 180655Z AUTO 17003KT 10SM BKN090 OVC110 23/20 A3012 RMK AO2 LTG DSNT NW T02300204
KHQG 180635Z AUTO 17004KT 10SM BKN090 OVC120 23/20 A3013 RMK AO2 LTG DSNT NW T02300202
KHQG 180615Z AUTO 16006KT 10SM RA BKN090 OVC110 23/20 A3013 RMK AO2 LTG DSNT NW T02300200
KHQG 180555Z AUTO 15006KT 10SM BKN100 OVC110 23/19 A3014 RMK AO2 LTG DSNT NW P0001 60001 T02300194 10258 20230 403690190
KHQG 180535Z AUTO 00000KT 10SM OVC110 23/19 A3013 RMK AO2 LTG DSNT SE P0001 T02300190
KHQG 180515Z AUTO 06009KT 10SM -RA OVC110 23/19 A3011 RMK AO2 P0001 T02300192
KHQG 180455Z AUTO 10005KT 10SM -RA BKN110 24/18 A3012 RMK AO2 LTG DSNT NW THRU NE T02370184
KHQG 180435Z AUTO 07007KT 10SM SCT120 23/18 A3011 RMK AO2 T02300178
KHQG 180415Z AUTO 07006KT 10SM CLR 23/18 A3010 RMK AO2 T02300180
KHQG 180355Z AUTO 06004KT 10SM -RA CLR 24/18 A3009 RMK AO2 T02370177
KHQG 180335Z AUTO 05004KT 10SM CLR 24/19 A3008 RMK AO2 T02410192
KHQG 180315Z AUTO 04003KT 10SM CLR 23/20 A3008 RMK AO2 LTG DSNT SE T02300196
KHQG 180255Z AUTO 02004KT 10SM CLR 25/19 A3006 RMK AO2 T02450191
KHQG 180235Z AUTO 00000KT 10SM CLR 25/20 A3004 RMK AO2 T02450197
KHQG 180215Z AUTO 00000KT 10SM CLR 25/20 A3004 RMK AO2 LTG DSNT N T02450196
KHQG 180155Z AUTO 36003KT 10SM SCT110 24/20 A3004 RMK AO2 LTG DSNT N AND NW T02440200
KHQG 180135Z AUTO 15004KT 10SM SCT110 25/20 A3005 RMK AO2 LTG DSNT N T02450196
KHQG 180115Z AUTO 14006KT 10SM CLR 26/20 A3004 RMK AO2 LTG DSNT E T02580195
KHQG 180055Z AUTO 12006KT 10SM CLR 26/20 A3004 RMK AO2 LTG DSNT E T02580196
KHQG 180035Z AUTO 13007KT 10SM VCTS SCT100 26/19 A3005 RMK AO2 LTG DSNT NE AND E T02580193
KHQG 180015Z AUTO 11007KT 10SM TS SCT100 26/20 A3005 RMK AO2 LTG DSNT NE AND E T02580199
KHQG 172355Z AUTO 10013G20KT 10SM SCT110 26/19 A3004 RMK AO2 LTG DSNT NE THRU SE P0003 60051 T02580191 10369 20202
KHQG 172335Z AUTO 12012G15KT 10SM -VCTSRA SCT030 SCT120 27/19 A3004 RMK AO2 LTG DSNT ALQS P0003 T02720187
KHQG 172315Z AUTO 02009KT 10SM -TSRA SCT008 SCT018 BKN032 25/19 A3002 RMK AO2 LTG DSNT ALQS P0003 T02520188
KHQG 172255Z AUTO 06012G34KT 3/4SM +TSRA BKN006 OVC017 21/17 A3006 RMK AO2 LTG DSNT ALQS P0046 T02120167
KHQG 172235Z AUTO 23021G28KT 160V280 10SM TS SCT080 BKN095 34/18 A3003 RMK AO2 LTG DSNT ALQS T03400176
KHQG 172215Z AUTO 02008KT 10SM SCT095 34/18 A3002 RMK AO2 LTG DSNT SE T03430181
KHQG 172155Z AUTO 00000KT 10SM SCT110 35/15 A3003 RMK AO2 LTG DSNT S T03470150
KHQG 172135Z AUTO 33004KT 10SM CLR 36/16 A3004 RMK AO2 T03610164
KHQG 172115Z AUTO 16003KT 10SM CLR 35/16 A3004 RMK AO2 T03520157
KHQG 172055Z AUTO 17005KT 10SM CLR 35/16 A3004 RMK AO2 T03450159
KHQG 172035Z AUTO 15004KT 10SM CLR 35/16 A3005 RMK AO2 T03480162
KHQG 172015Z AUTO 15007KT 120V180 10SM CLR 34/16 A3006 RMK AO2 T03430163
KHQG 171955Z AUTO 00000KT 10SM CLR 34/18 A3007 RMK AO2 T03430176
KHQG 171930Z AUTO 11005KT 10SM CLR 34/18 A3008 RMK AO2 T03430184
KHQG 171915Z AUTO 14003KT 10SM CLR 34/19 A3008 RMK AO2 LTG DSNT W T03430187
KHQG 171855Z AUTO 17008KT 10SM CLR 33/18 A3009 RMK AO2 T03300184
KHQG 171835Z AUTO 15007KT 10SM CLR 31/19 A3010 RMK AO2 T03060187
KHQG 171815Z AUTO 13007KT 10SM CLR 30/19 A3011 RMK AO2 T02950189
KHQG 171755Z AUTO 13010KT 10SM CLR 30/19 A3011 RMK AO2 T02950185 10301 20190
KHQG 171735Z AUTO 12011G15KT 10SM CLR 29/18 A3012 RMK AO2 T02870184
KHQG 171710Z AUTO 09012KT 10SM CLR 29/18 A3012 RMK AO2 T02870184
KHQG 171655Z AUTO 08012G18KT 10SM SCT035 29/18 A3013 RMK AO2 T02870184
KHQG 171635Z AUTO 10009G14KT 060V120 10SM CLR 30/18 A3014 RMK AO2 T03010178
KHQG 171615Z AUTO 09011G15KT 10SM CLR 30/19 A3012 RMK AO2 T02960186